Data for 02/08/2014

Time Sea-Level Adjusted Pressure Absolute Pressure Temperature Relative Humidity Dew Point   
(mb) (inHg) (mb) (inHg) (C) (F) (%) (C) (F)
00:05 1009 29.8 838 24.75 -12.9 8.8 74 -16.7 1.9
00:10 1009 29.8 838 24.75 -12.9 8.7 71 -17.1 1.1
00:15 1009 29.8 838 24.75 -13.2 8.2 71 -17.4 0.7
00:20 1009 29.8 838 24.75 -13.7 7.4 72 -17.7 0.1
00:25 1009 29.8 838 24.75 -13.9 7.1 72 -17.9 -0.2
00:30 1009 29.8 838 24.75 -14.1 6.6 72 -18.1 -0.5
00:35 1009 29.8 838 24.75 -14.3 6.3 73 -18.1 -0.5
00:40 1009 29.8 838 24.75 -14.4 6.1 74 -18 -0.5
00:45 1009 29.8 838 24.75 -14.4 6 74 -18.1 -0.6
00:50 1009 29.8 838 24.75 -14.4 6.1 74 -18.1 -0.6
00:55 1009 29.8 838 24.75 -14.5 5.9 75 -18 -0.3
01:00 1009 29.8 838 24.75 -14.3 6.3 75 -17.8 -0.1
01:05 1009 29.8 838 24.75 -14.3 6.2 76 -17.7 0.2
01:10 1009 29.8 838 24.75 -14.4 6.1 77 -17.6 0.2
01:15 1008 29.77 838 24.75 -14.4 6.1 77 -17.6 0.4
01:20 1008 29.77 838 24.75 -14.2 6.4 76 -17.6 0.3
01:25 1008 29.77 838 24.75 -14.1 6.7 75 -17.5 0.4
01:30 1008 29.77 838 24.75 -13.4 7.8 76 -16.9 1.7
01:35 1008 29.77 838 24.75 -13.2 8.3 74 -16.8 1.8
01:40 1008 29.77 837 24.72 -13.1 8.5 75 -16.7 2
01:45 1008 29.77 837 24.72 -12.9 8.8 75 -16.5 2.3
01:50 1008 29.77 837 24.72 -12.7 9.1 70 -17.1 1.2
01:55 1008 29.77 837 24.72 -13.3 8 72 -17.3 0.9
02:00 1008 29.77 837 24.72 -14 6.7 73 -17.9 -0.3
02:05 1008 29.77 837 24.72 -14.2 6.4 73 -18 -0.4
02:10 1008 29.77 837 24.72 -14.3 6.3 75 -17.8 -0.1
02:15 1008 29.77 837 24.72 -14.2 6.5 74 -17.9 -0.2
02:20 1008 29.77 837 24.72 -14 6.9 73 -17.7 0.1
02:25 1008 29.77 837 24.72 -13.7 7.3 72 -17.8 -0.1
02:30 1008 29.77 837 24.72 -13.8 7.3 71 -17.9 -0.2
02:35 1008 29.77 837 24.72 -13.7 7.3 71 -17.9 -0.3
02:40 1008 29.77 837 24.72 -13.7 7.4 71 -18 -0.3
02:45 1008 29.77 837 24.72 -13.7 7.4 71 -17.8 -0
02:50 1008 29.77 837 24.72 -13.8 7.3 71 -18 -0.3
02:55 1008 29.77 837 24.72 -13.7 7.3 71 -17.9 -0.2
03:00 1008 29.77 837 24.72 -13.6 7.6 74 -17.3 0.8
03:05 1008 29.77 837 24.72 -13.6 7.6 74 -17.3 0.8
03:10 1008 29.77 837 24.72 -13.8 7.1 75 -17.4 0.6
03:15 1008 29.77 837 24.72 -13.9 7.1 74 -17.5 0.5
03:20 1008 29.77 837 24.72 -13.7 7.4 73 -17.4 0.6
03:25 1008 29.77 837 24.72 -13.4 7.9 72 -17.5 0.5
03:30 1008 29.77 837 24.72 -13.2 8.2 73 -17.1 1.3
03:35 1008 29.77 837 24.72 -13.1 8.4 76 -16.5 2.2
03:40 1008 29.77 837 24.72 -13 8.6 77 -16.2 2.8
03:45 1007 29.74 837 24.72 -12.8 8.9 76 -16.2 2.9
03:50 1007 29.74 837 24.72 -12.8 9 78 -15.9 3.4
03:55 1007 29.74 836 24.69 -12.7 9.2 78 -15.8 3.6
04:00 1007 29.74 836 24.69 -13 8.6 80 -15.8 3.6
04:05 1007 29.74 836 24.69 -13.1 8.4 80 -15.8 3.5
04:10 1007 29.74 836 24.69 -13.4 8 80 -16.2 2.9
04:15 1007 29.74 836 24.69 -13.9 7 79 -16.7 1.9
04:20 1007 29.74 836 24.69 -14.3 6.3 80 -17 1.4
04:25 1007 29.74 836 24.69 -14.6 5.7 82 -17 1.4
04:30 1007 29.74 836 24.69 -14.7 5.6 82 -17.1 1.1
04:35 1007 29.74 836 24.69 -14.6 5.7 82 -17.1 1.3
04:40 1007 29.74 836 24.69 -14.7 5.6 81 -17.2 1.1
04:45 1007 29.74 836 24.69 -14.7 5.5 82 -17.2 1.1
04:50 1007 29.74 836 24.69 -14.7 5.5 82 -17.2 1.1
04:55 1007 29.74 836 24.69 -14.8 5.4 82 -17.2 1
05:00 1007 29.74 837 24.72 -14.8 5.4 83 -17.1 1.2
05:05 1007 29.74 837 24.72 -14.8 5.4 81 -17.4 0.7
05:10 1008 29.77 837 24.72 -15.1 4.8 81 -17.7 0.1
05:15 1008 29.77 837 24.72 -15.8 3.6 82 -18.2 -0.7
05:20 1008 29.77 837 24.72 -16.2 2.9 83 -18.5 -1.3
05:25 1008 29.77 837 24.72 -16.3 2.7 83 -18.6 -1.4
05:30 1008 29.77 837 24.72 -16.2 2.9 82 -18.6 -1.5
05:35 1008 29.77 837 24.72 -16.3 2.7 83 -18.5 -1.3
05:40 1008 29.77 837 24.72 -16.1 3 83 -18.4 -1.2
05:45 1008 29.77 837 24.72 -16 3.1 82 -18.5 -1.2
05:50 1008 29.77 837 24.72 -16.1 3.1 83 -18.4 -1.1
05:55 1008 29.77 837 24.72 -16 3.2 83 -18.3 -0.9
06:00 1008 29.77 837 24.72 -15.9 3.4 83 -18.1 -0.7
06:05 1008 29.77 837 24.72 -15.8 3.6 83 -18.1 -0.5
06:10 1008 29.77 837 24.72 -15.8 3.5 83 -18.1 -0.5
06:15 1008 29.77 837 24.72 -15.9 3.4 83 -18.1 -0.6
06:20 1008 29.77 838 24.75 -15.9 3.4 84 -18.1 -0.5
06:25 1008 29.77 838 24.75 -15.8 3.7 83 -18 -0.4
06:30 1008 29.77 838 24.75 -15.8 3.7 84 -17.9 -0.2
06:35 1009 29.8 838 24.75 -15.6 3.9 83 -17.9 -0.2
06:40 1009 29.8 838 24.75 -15.5 4 83 -17.8 -0.1
06:45 1009 29.8 838 24.75 -15.5 4.1 83 -17.8 -0
06:50 1009 29.8 838 24.75 -15.5 4 84 -17.7 0.1
06:55 1009 29.8 838 24.75 -15.5 4.1 83 -17.8 -0
07:00 1009 29.8 838 24.75 -15.5 4 84 -17.7 0.2
07:05 1009 29.8 838 24.75 -15.4 4.2 84 -17.5 0.5
07:10 1009 29.8 838 24.75 -15.3 4.5 84 -17.4 0.7
07:15 1009 29.8 838 24.75 -15.2 4.7 83 -17.4 0.7
07:20 1009 29.8 838 24.75 -15.1 4.9 83 -17.4 0.7
07:25 1009 29.8 838 24.75 -15.1 4.9 84 -17.3 0.9
07:30 1009 29.8 838 24.75 -15.1 4.8 84 -17.2 1
07:35 1009 29.8 838 24.75 -15.3 4.4 83 -17.6 0.3
07:40 1009 29.8 839 24.78 -15.6 3.8 84 -17.8 0
07:45 1009 29.8 839 24.78 -15.7 3.8 85 -17.6 0.3
07:50 1009 29.8 839 24.78 -15.5 4.1 84 -17.6 0.3
07:55 1009 29.8 839 24.78 -15.5 4.1 84 -17.7 0.2
08:00 1009 29.8 839 24.78 -15.5 4.1 84 -17.6 0.3
08:05 1010 29.83 839 24.78 -15.5 4.2 85 -17.5 0.5
08:10 1010 29.83 839 24.78 -15.4 4.4 84 -17.4 0.6
08:15 1010 29.83 839 24.78 -15.3 4.5 84 -17.4 0.7
08:20 1010 29.83 839 24.78 -15.3 4.4 83 -17.5 0.4
08:25 1010 29.83 839 24.78 -15.4 4.4 84 -17.5 0.4
08:30 1010 29.83 840 24.81 -15.3 4.4 83 -17.6 0.3
08:35 1010 29.83 840 24.81 -15.3 4.4 83 -17.6 0.3
08:40 1011 29.85 840 24.81 -15.4 4.2 84 -17.6 0.3
08:45 1011 29.85 840 24.81 -15.4 4.3 83 -17.6 0.3
08:50 1011 29.85 840 24.81 -15.4 4.4 83 -17.6 0.2
08:55 1011 29.85 840 24.81 -15.4 4.3 83 -17.6 0.3
09:00 1011 29.85 841 24.83 -15.4 4.4 83 -17.6 0.3
09:05 1012 29.88 841 24.83 -15.4 4.4 83 -17.6 0.4
09:10 1012 29.88 841 24.83 -15.3 4.4 83 -17.6 0.3
09:15 1012 29.88 841 24.83 -15.3 4.4 83 -17.5 0.4
09:20 1012 29.88 841 24.83 -15.3 4.4 84 -17.5 0.5
09:25 1012 29.88 841 24.83 -15.2 4.6 84 -17.4 0.7
09:30 1012 29.88 841 24.83 -15.1 4.8 84 -17.3 0.8
09:35 1012 29.88 842 24.86 -15 5 83 -17.3 0.9
09:40 1013 29.91 842 24.86 -15 5 83 -17.2 1
09:45 1013 29.91 842 24.86 -14.9 5.2 82 -17.3 0.8
09:50 1013 29.91 842 24.86 -14.9 5.3 82 -17.3 0.9
09:55 1013 29.91 842 24.86 -14.8 5.4 81 -17.4 0.7
10:00 1013 29.91 842 24.86 -14.8 5.4 82 -17.3 0.9
10:05 1013 29.91 842 24.86 -14.7 5.5 82 -17.2 1.1
10:10 1013 29.91 843 24.89 -14.6 5.6 82 -17.1 1.3
10:15 1013 29.91 843 24.89 -14.6 5.8 81 -17.1 1.2
10:20 1013 29.91 843 24.89 -14.5 5.8 82 -17 1.4
10:25 1013 29.91 843 24.89 -14.4 6.1 82 -16.9 1.6
10:30 1014 29.94 843 24.89 -14.3 6.4 81 -16.8 1.7
10:35 1014 29.94 843 24.89 -14.3 6.3 81 -16.9 1.5
10:40 1014 29.94 843 24.89 -14.3 6.3 81 -16.9 1.6
10:45 1014 29.94 843 24.89 -14.2 6.4 81 -16.8 1.7
10:50 1014 29.94 843 24.89 -14.1 6.7 81 -16.7 2
10:55 1014 29.94 843 24.89 -13.9 7 81 -16.5 2.3
11:00 1014 29.94 844 24.92 -13.6 7.5 78 -16.6 2
11:05 1015 29.97 844 24.92 -13.7 7.4 79 -16.5 2.2
11:10 1015 29.97 844 24.92 -13.7 7.3 78 -16.7 1.9
11:15 1015 29.97 844 24.92 -13.8 7.2 78 -16.7 1.9
11:20 1015 29.97 844 24.92 -13.6 7.6 77 -16.8 1.8
11:25 1015 29.97 844 24.92 -13.1 8.4 77 -16.3 2.7
11:30 1015 29.97 844 24.92 -12.7 9.2 75 -16.3 2.7
11:35 1015 29.97 844 24.92 -12.8 8.9 77 -16.1 3
11:40 1015 29.97 844 24.92 -12.7 9.1 72 -16.7 1.9
11:45 1015 29.97 844 24.92 -13.1 8.4 74 -16.8 1.7
11:50 1015 29.97 844 24.92 -13.3 8.1 75 -16.9 1.6
11:55 1015 29.97 845 24.95 -13.6 7.6 75 -17 1.4
12:00 1015 29.97 845 24.95 -13.5 7.6 77 -16.7 1.9
12:05 1015 29.97 845 24.95 -13.4 7.8 76 -16.8 1.8
12:10 1015 29.97 845 24.95 -13.3 8.1 75 -16.8 1.7
12:15 1016 30 845 24.95 -12.8 8.9 73 -16.8 1.8
12:20 1016 30 845 24.95 -12.5 9.5 70 -16.9 1.6
12:25 1016 30 845 24.95 -12.9 8.8 72 -17 1.4
12:30 1016 30 845 24.95 -13.3 8.1 73 -17.2 1
12:35 1016 30 845 24.95 -13.3 8.1 73 -17.2 1
12:40 1016 30 845 24.95 -13.1 8.4 71 -17.3 0.8
12:45 1016 30 845 24.95 -13.5 7.8 73 -17.3 0.9
12:50 1016 30 845 24.95 -13.3 8.1 72 -17.3 0.8
12:55 1016 30 846 24.98 -12.9 8.8 70 -17.2 1
13:00 1016 30 846 24.98 -13.1 8.4 73 -17 1.3
13:05 1017 30.03 846 24.98 -13.4 7.8 72 -17.5 0.5
13:10 1017 30.03 846 24.98 -13.5 7.8 72 -17.4 0.6
13:15 1017 30.03 846 24.98 -13.4 7.9 72 -17.5 0.5
13:20 1016 30 846 24.98 -13.3 8 70 -17.7 0.1
13:25 1016 30 846 24.98 -12.9 8.8 70 -17.4 0.8
13:30 1016 30 846 24.98 -12.5 9.5 67 -17.5 0.5
13:35 1016 30 846 24.98 -12.9 8.8 67 -17.8 -0.1
13:40 1016 30 846 24.98 -12.8 9 69 -17.4 0.7
13:45 1016 30 846 24.98 -12.3 9.8 66 -17.4 0.8
13:50 1017 30.03 846 24.98 -12 10.5 66 -17.1 1.3
13:55 1017 30.03 846 24.98 -12.7 9.2 69 -17.2 1
14:00 1017 30.03 846 24.98 -11.9 10.6 64 -17.4 0.8
14:05 1017 30.03 846 24.98 -11.4 11.5 65 -16.8 1.8
14:10 1017 30.03 846 24.98 -11.2 11.8 64 -16.7 1.9
14:15 1017 30.03 846 24.98 -11.3 11.6 62 -17.2 1
14:20 1017 30.03 846 24.98 -11.7 10.9 62 -17.5 0.4
14:25 1017 30.03 846 24.98 -12 10.3 63 -17.8 0
14:30 1017 30.03 846 24.98 -12 10.4 62 -17.8 -0.1
14:35 1017 30.03 846 24.98 -12 10.4 63 -17.6 0.3
14:40 1017 30.03 846 24.98 -11.7 10.9 62 -17.6 0.4
14:45 1017 30.03 846 24.98 -11.9 10.5 63 -17.7 0.1
14:50 1017 30.03 847 25.01 -12.2 10 65 -17.5 0.4
14:55 1017 30.03 847 25.01 -12.1 10.2 62 -18 -0.3
15:00 1017 30.03 847 25.01 -11.4 11.5 61 -17.5 0.5
15:05 1017 30.03 847 25.01 -11.2 11.9 60 -17.5 0.5
15:10 1017 30.03 846 24.98 -10.8 12.6 59 -17.3 0.9
15:15 1017 30.03 846 24.98 -11 12.3 59 -17.5 0.5
15:20 1017 30.03 846 24.98 -11.2 11.8 59 -17.7 0.1
15:25 1017 30.03 846 24.98 -11.7 10.9 61 -17.7 0.1
15:30 1017 30.03 847 25.01 -12.4 9.7 64 -17.8 -0.1
15:35 1017 30.03 847 25.01 -12.3 9.8 63 -17.9 -0.3
15:40 1017 30.03 847 25.01 -12.1 10.2 63 -17.9 -0.2
15:45 1018 30.06 847 25.01 -12 10.5 62 -17.9 -0.3
15:50 1018 30.06 847 25.01 -11.7 11 61 -17.8 -0
15:55 1018 30.06 847 25.01 -11.6 11 59 -18.1 -0.5
16:00 1018 30.06 847 25.01 -11.9 10.6 61 -18 -0.5
16:05 1018 30.06 847 25.01 -11.7 11 58 -18.3 -1
16:10 1018 30.06 847 25.01 -11.1 12.1 59 -17.6 0.4
16:15 1018 30.06 847 25.01 -11.3 11.7 59 -17.8 -0.1
16:20 1018 30.06 847 25.01 -11.5 11.2 61 -17.7 0.1
16:25 1018 30.06 847 25.01 -11.7 11 63 -17.5 0.6
16:30 1018 30.06 847 25.01 -12.1 10.3 64 -17.5 0.4
16:35 1018 30.06 847 25.01 -12 10.3 62 -18 -0.4
16:40 1018 30.06 847 25.01 -12.2 10 64 -17.7 0.2
16:45 1018 30.06 847 25.01 -12.2 10 65 -17.5 0.5
16:50 1018 30.06 847 25.01 -12.3 9.9 64 -17.7 0.1
16:55 1018 30.06 847 25.01 -12.2 10.1 65 -17.6 0.4
17:00 1018 30.06 847 25.01 -12.5 9.6 65 -17.7 0.1
17:05 1018 30.06 847 25.01 -12.9 8.7 68 -17.7 0.2
17:10 1018 30.06 847 25.01 -12.9 8.9 67 -17.8 0
17:15 1018 30.06 847 25.01 -12.9 8.9 68 -17.6 0.3
17:20 1018 30.06 847 25.01 -12.9 8.7 68 -17.7 0.2
17:25 1018 30.06 847 25.01 -13.1 8.5 70 -17.5 0.5
17:30 1018 30.06 847 25.01 -13.3 8.2 70 -17.6 0.3
17:35 1018 30.06 847 25.01 -13.5 7.6 70 -17.9 -0.3
17:40 1018 30.06 847 25.01 -13.6 7.4 70 -17.9 -0.3
17:45 1018 30.06 847 25.01 -13.7 7.4 70 -18.1 -0.5
17:50 1018 30.06 847 25.01 -13.6 7.5 69 -18.1 -0.6
17:55 1018 30.06 847 25.01 -13.7 7.3 70 -18.1 -0.6
18:00 1018 30.06 847 25.01 -13.9 7 71 -18.2 -0.7
18:05 1018 30.06 848 25.04 -13.9 7 69 -18.3 -1
18:10 1018 30.06 848 25.04 -14 6.8 71 -18.2 -0.8
18:15 1018 30.06 848 25.04 -14 6.7 70 -18.4 -1.1
18:20 1018 30.06 848 25.04 -14.2 6.5 71 -18.3 -0.9
18:25 1018 30.06 848 25.04 -14.2 6.4 72 -18.3 -0.9
18:30 1018 30.06 848 25.04 -14.2 6.5 71 -18.3 -0.9
18:35 1018 30.06 848 25.04 -14.2 6.5 71 -18.3 -0.9
18:40 1018 30.06 847 25.01 -14 6.8 70 -18.4 -1.1
18:45 1018 30.06 847 25.01 -14.1 6.7 71 -18.3 -0.9
18:50 1018 30.06 847 25.01 -14.3 6.3 72 -18.3 -0.9
18:55 1018 30.06 847 25.01 -14.4 6.1 73 -18.3 -0.9
19:00 1018 30.06 848 25.04 -14.4 6 73 -18.2 -0.8
19:05 1018 30.06 848 25.04 -14.6 5.8 74 -18.2 -0.8
19:10 1018 30.06 847 25.01 -14.9 5.2 76 -18.3 -0.9
19:15 1018 30.06 847 25.01 -15.2 4.7 78 -18.2 -0.8
19:20 1018 30.06 848 25.04 -15.2 4.7 78 -18.2 -0.8
19:25 1018 30.06 848 25.04 -15.1 4.8 77 -18.3 -1
19:30 1019 30.09 848 25.04 -15.1 4.8 77 -18.3 -0.9
19:35 1019 30.09 848 25.04 -15.1 4.9 77 -18.2 -0.8
19:40 1019 30.09 848 25.04 -15.2 4.7 78 -18.2 -0.8
19:45 1019 30.09 848 25.04 -15.2 4.6 79 -18.1 -0.6
19:50 1019 30.09 848 25.04 -15.2 4.6 79 -18.1 -0.6
19:55 1019 30.09 848 25.04 -15.2 4.6 80 -17.9 -0.3
20:00 1019 30.09 848 25.04 -14.8 5.3 78 -17.8 -0
20:05 1019 30.09 848 25.04 -14.7 5.6 78 -17.6 0.2
20:10 1019 30.09 848 25.04 -14.7 5.6 78 -17.7 0.2
20:15 1019 30.09 848 25.04 -14.7 5.5 79 -17.7 0.2
20:20 1019 30.09 848 25.04 -14.7 5.5 77 -17.9 -0.2
20:25 1019 30.09 848 25.04 -14.8 5.3 79 -17.6 0.3
20:30 1019 30.09 848 25.04 -14.9 5.2 80 -17.6 0.2
20:35 1019 30.09 848 25.04 -15.1 4.9 81 -17.6 0.4
20:40 1019 30.09 848 25.04 -15.2 4.7 82 -17.5 0.4
20:45 1019 30.09 848 25.04 -15.1 4.8 81 -17.7 0.1
20:50 1018 30.06 848 25.04 -15.1 4.8 79 -17.9 -0.3
20:55 1018 30.06 847 25.01 -15.2 4.6 80 -18 -0.4
21:00 1018 30.06 847 25.01 -15.2 4.6 80 -18 -0.4
21:05 1018 30.06 847 25.01 -15.3 4.4 79 -18.1 -0.6
21:10 1018 30.06 847 25.01 -15.3 4.5 80 -18 -0.5
21:15 1018 30.06 847 25.01 -15.2 4.6 79 -18.1 -0.6
21:20 1018 30.06 847 25.01 -15.3 4.5 79 -18.2 -0.7
21:25 1018 30.06 847 25.01 -15.3 4.6 79 -18.1 -0.5
21:30 1018 30.06 847 25.01 -15.1 4.8 79 -18 -0.3
21:35 1018 30.06 847 25.01 -15 5 78 -18 -0.4
21:40 1018 30.06 847 25.01 -15.4 4.4 80 -18.1 -0.7
21:45 1018 30.06 847 25.01 -15.6 3.9 80 -18.3 -1
21:50 1018 30.06 847 25.01 -15.6 4 81 -18.1 -0.7
21:55 1018 30.06 847 25.01 -15.4 4.3 81 -17.9 -0.2
22:00 1018 30.06 847 25.01 -15.2 4.7 81 -17.7 0.1
22:05 1018 30.06 847 25.01 -15.1 4.8 80 -17.8 -0.1
22:10 1018 30.06 847 25.01 -15.2 4.6 80 -17.9 -0.3
22:15 1018 30.06 847 25.01 -15.1 4.7 80 -17.8 -0
22:20 1018 30.06 847 25.01 -15.1 4.8 81 -17.8 0
22:25 1018 30.06 847 25.01 -15.3 4.5 81 -17.8 -0.1
22:30 1018 30.06 847 25.01 -15.3 4.4 82 -17.8 -0
22:35 1017 30.03 847 25.01 -15.4 4.3 82 -17.8 -0.1
22:40 1017 30.03 846 24.98 -15.6 4 82 -18 -0.4
22:45 1017 30.03 846 24.98 -15.7 3.8 83 -18 -0.4
22:50 1017 30.03 846 24.98 -15.6 3.9 83 -17.8 -0.1
22:55 1017 30.03 847 25.01 -15.5 4.1 83 -17.8 -0
23:00 1017 30.03 847 25.01 -15.4 4.3 78 -18.4 -1.2
23:05 1017 30.03 846 24.98 -15.2 4.6 79 -18.2 -0.7
23:10 1017 30.03 846 24.98 -15.2 4.6 78 -18.2 -0.8
23:15 1017 30.03 846 24.98 -15.3 4.5 77 -18.4 -1.2
23:20 1017 30.03 846 24.98 -15.3 4.4 77 -18.4 -1.1
23:25 1017 30.03 846 24.98 -15.3 4.5 76 -18.6 -1.5
23:30 1017 30.03 846 24.98 -15.3 4.4 75 -18.8 -1.8
23:35 1017 30.03 846 24.98 -15.3 4.4 75 -18.8 -1.8
23:40 1017 30.03 846 24.98 -15.3 4.4 78 -18.4 -1.1
23:45 1017 30.03 846 24.98 -15.4 4.4 80 -18 -0.4
23:50 1017 30.03 846 24.98 -15.5 4.1 78 -18.4 -1.2
23:55 1017 30.03 846 24.98 -15.6 3.9 81 -18.1 -0.7
24:00 1017 30.03 846 24.98 -15.7 3.8 81 -18.2 -0.7